LFHP/LPY METAR and TAF weather

Enter ICAO airport designator
Station Type Date Time Source
LFHP METAR 2020/03/28 13:30 UTC NOAA

LFHP 281330Z AUTO VRB05KT CAVOK 14/02 Q1015


Station Type Date Time Source
LFHP Decoded METAR 2020/03/28 13:30 UTC NOAA

Le Puy, France (LFHP) 45-05N 003-46E 833M
Mar 28, 2020 - 09:30 AM EDT / 2020.03.28 1330 UTC
Wind: Variable at 6 MPH (5 KT):0
Visibility: greater than 7 mile(s):0
Temperature: 57 F (14 C)
Dew Point: 35 F (2 C)
Relative Humidity: 44%
Pressure (altimeter): 29.97 in. Hg (1015 hPa)
ob: LFHP 281330Z AUTO VRB05KT CAVOK 14/02 Q1015
cycle: 13

Station Type Date Time Source
LFHP TAF UTC NOAA

Error!

Example: see airport list